createdAt,value
2023-05-05T00:01:08.348Z,11.60
2023-05-05T00:03:37.835Z,9.25
2023-05-05T00:06:05.434Z,9.88
2023-05-05T00:08:32.169Z,9.97
2023-05-05T00:10:58.712Z,9.23
2023-05-05T00:13:25.313Z,6.72
2023-05-05T00:15:53.496Z,8.00
2023-05-05T00:18:20.417Z,7.70
2023-05-05T00:20:47.512Z,9.47
2023-05-05T00:23:14.631Z,10.82
2023-05-05T00:25:41.194Z,10.13
2023-05-05T00:28:07.647Z,7.32
2023-05-05T00:30:34.643Z,11.98
2023-05-05T00:33:01.837Z,8.77
2023-05-05T00:35:28.635Z,7.43
2023-05-05T00:37:55.273Z,10.05
2023-05-05T00:40:21.979Z,13.10
2023-05-05T00:42:50.853Z,22.10
2023-05-05T00:45:17.800Z,9.57
2023-05-05T00:48:04.713Z,8.88
2023-05-05T00:50:31.396Z,8.70
2023-05-05T00:53:00.101Z,6.82
2023-05-05T00:55:26.627Z,8.60
2023-05-05T00:57:53.468Z,10.33
2023-05-05T01:00:19.913Z,9.52
2023-05-05T01:02:46.562Z,9.35
2023-05-05T01:05:14.324Z,8.55
2023-05-05T01:07:40.687Z,10.15
2023-05-05T01:10:20.151Z,8.03
2023-05-05T01:13:06.255Z,8.18
2023-05-05T01:15:51.642Z,8.73
2023-05-05T01:18:41.137Z,11.15
2023-05-05T01:21:23.652Z,13.32
2023-05-05T01:24:02.506Z,7.60
2023-05-05T01:26:44.182Z,11.00
2023-05-05T01:29:23.026Z,10.07
2023-05-05T01:31:57.571Z,14.32
2023-05-05T01:34:38.982Z,7.85
2023-05-05T01:37:11.405Z,7.33
2023-05-05T01:39:38.816Z,8.60
2023-05-05T01:42:08.217Z,7.55
2023-05-05T01:44:36.547Z,8.63
2023-05-05T01:47:03.413Z,8.48
2023-05-05T01:49:30.470Z,11.13
2023-05-05T01:51:57.775Z,12.13
2023-05-05T01:54:24.704Z,9.98
2023-05-05T01:56:53.172Z,11.98
2023-05-05T01:59:20.403Z,11.95
2023-05-05T02:01:48.699Z,11.00
2023-05-05T02:04:15.371Z,7.55
2023-05-05T02:06:43.038Z,11.23
2023-05-05T02:09:11.881Z,11.35
2023-05-05T02:11:38.392Z,10.45
2023-05-05T02:14:05.610Z,10.13
2023-05-05T02:16:33.253Z,12.63
2023-05-05T02:19:02.291Z,9.95
2023-05-05T02:21:28.865Z,9.43
2023-05-05T02:23:55.733Z,9.55
2023-05-05T02:26:22.572Z,11.20
2023-05-05T02:28:49.061Z,10.70
2023-05-05T02:31:16.503Z,12.40
2023-05-05T02:33:44.511Z,15.38
2023-05-05T02:36:19.607Z,13.75
2023-05-05T02:38:47.337Z,12.13
2023-05-05T02:41:16.942Z,13.80
2023-05-05T02:43:43.673Z,10.73
2023-05-05T02:46:10.253Z,18.40
2023-05-05T02:48:36.753Z,13.38
2023-05-05T02:51:03.174Z,13.00
2023-05-05T02:53:29.650Z,30.33
2023-05-05T02:56:06.094Z,12.77
2023-05-05T02:58:40.816Z,15.68
2023-05-05T03:01:13.274Z,13.57
2023-05-05T03:03:40.969Z,17.07
2023-05-05T03:06:11.646Z,12.73
2023-05-05T03:08:44.010Z,14.88
2023-05-05T03:11:30.665Z,13.05
2023-05-05T03:14:01.469Z,12.87
2023-05-05T03:16:28.114Z,16.00
2023-05-05T03:18:55.566Z,14.57
2023-05-05T03:21:22.008Z,14.32
2023-05-05T03:23:48.413Z,13.27
2023-05-05T03:26:16.886Z,14.20
2023-05-05T03:28:43.315Z,11.02
2023-05-05T03:31:09.868Z,16.83
2023-05-05T03:33:36.279Z,13.73
2023-05-05T03:36:02.740Z,13.93
2023-05-05T03:38:29.280Z,10.80
2023-05-05T03:40:56.237Z,14.80
2023-05-05T03:43:22.791Z,14.48
2023-05-05T03:45:50.617Z,12.25
2023-05-05T03:48:17.153Z,14.10
2023-05-05T03:50:44.889Z,18.23
2023-05-05T03:53:11.470Z,15.52
2023-05-05T03:55:37.890Z,14.65
2023-05-05T03:58:04.305Z,16.25
2023-05-05T04:00:31.109Z,13.00
2023-05-05T04:02:57.675Z,15.83
2023-05-05T04:05:24.163Z,17.70
2023-05-05T04:07:50.557Z,15.82
2023-05-05T04:10:17.227Z,18.50
2023-05-05T04:12:43.727Z,16.52
2023-05-05T04:15:10.319Z,14.60
2023-05-05T04:17:36.698Z,22.75
2023-05-05T04:20:03.353Z,25.27
2023-05-05T04:22:29.898Z,24.15
2023-05-05T04:24:56.404Z,20.52
2023-05-05T04:27:22.799Z,16.20
2023-05-05T04:29:49.195Z,16.63
2023-05-05T04:32:15.816Z,18.20
2023-05-05T04:34:42.360Z,19.52
2023-05-05T04:37:08.893Z,17.13
2023-05-05T04:39:35.450Z,21.40
2023-05-05T04:42:02.405Z,19.60
2023-05-05T04:44:28.858Z,20.35
2023-05-05T04:46:55.385Z,18.02
2023-05-05T04:49:21.870Z,20.70
2023-05-05T04:51:48.289Z,24.13
2023-05-05T04:54:14.859Z,22.60
2023-05-05T04:56:41.297Z,17.33
2023-05-05T04:59:07.736Z,20.75
2023-05-05T05:01:35.254Z,19.30
2023-05-05T05:04:03.440Z,20.50
2023-05-05T05:06:29.833Z,25.58
2023-05-05T05:08:56.236Z,22.40
2023-05-05T05:11:23.077Z,20.30
2023-05-05T05:13:49.582Z,21.98
2023-05-05T05:16:16.074Z,26.43
2023-05-05T05:18:42.591Z,22.45
2023-05-05T05:21:09.091Z,28.85
2023-05-05T05:23:35.566Z,24.33
2023-05-05T05:26:02.206Z,26.55
2023-05-05T05:28:28.780Z,25.33
2023-05-05T05:30:55.297Z,23.63
2023-05-05T05:33:22.093Z,24.58
2023-05-05T05:35:48.528Z,20.80
2023-05-05T05:38:14.977Z,20.40
2023-05-05T05:40:41.472Z,26.03
2023-05-05T05:43:07.925Z,24.60
2023-05-05T05:45:34.306Z,34.88
2023-05-05T05:48:00.785Z,26.70
2023-05-05T05:50:28.670Z,26.30
2023-05-05T05:52:55.572Z,25.73
2023-05-05T05:55:22.028Z,23.50
2023-05-05T05:57:48.518Z,25.80
2023-05-05T06:00:16.020Z,22.33
2023-05-05T06:02:42.503Z,25.42
2023-05-05T06:05:09.288Z,25.60
2023-05-05T06:07:35.694Z,23.13
2023-05-05T06:10:14.542Z,23.40
2023-05-05T06:12:45.458Z,24.05
2023-05-05T06:15:11.964Z,22.95
2023-05-05T06:17:38.394Z,23.80
2023-05-05T06:20:05.447Z,24.27
2023-05-05T06:22:31.919Z,19.40
2023-05-05T06:24:58.367Z,24.98
2023-05-05T06:27:24.766Z,32.47
2023-05-05T06:29:51.368Z,22.00
2023-05-05T06:32:17.810Z,20.58
2023-05-05T06:34:45.112Z,21.30
2023-05-05T06:37:11.541Z,18.10
2023-05-05T06:39:37.986Z,19.48
2023-05-05T06:42:04.487Z,21.13
2023-05-05T06:44:31.252Z,25.20
2023-05-05T06:46:57.702Z,21.50
2023-05-05T06:49:24.231Z,18.05
2023-05-05T06:51:50.666Z,21.58
2023-05-05T06:54:17.649Z,22.53
2023-05-05T06:56:44.130Z,19.65
2023-05-05T06:59:10.628Z,20.27
2023-05-05T07:01:37.094Z,21.38
2023-05-05T07:04:03.665Z,19.52
2023-05-05T07:06:30.279Z,22.90
2023-05-05T07:08:57.913Z,17.83
2023-05-05T07:11:24.440Z,17.63
2023-05-05T07:13:51.019Z,16.45
2023-05-05T07:16:17.526Z,15.07
2023-05-05T07:18:43.963Z,14.50
2023-05-05T07:21:10.356Z,17.73
2023-05-05T07:23:37.986Z,12.50
2023-05-05T07:26:04.623Z,12.35
2023-05-05T07:28:31.023Z,12.60
2023-05-05T07:30:57.585Z,13.40
2023-05-05T07:33:24.065Z,16.70
2023-05-05T07:35:50.762Z,15.65
2023-05-05T07:38:17.336Z,18.83
2023-05-05T07:40:43.727Z,13.07
2023-05-05T07:43:10.540Z,10.57
2023-05-05T07:45:36.973Z,11.68
2023-05-05T07:48:03.602Z,15.18
2023-05-05T07:50:30.076Z,13.95
2023-05-05T07:53:06.204Z,12.95
2023-05-05T07:55:39.948Z,11.40
2023-05-05T07:58:06.386Z,10.18
2023-05-05T08:00:32.871Z,8.75
2023-05-05T08:02:59.531Z,13.70
2023-05-05T08:05:26.167Z,9.68
2023-05-05T08:07:52.615Z,13.37
2023-05-05T08:10:19.044Z,13.55
2023-05-05T08:12:45.605Z,10.75
2023-05-05T08:15:12.299Z,9.70
2023-05-05T08:17:46.222Z,12.88
2023-05-05T08:20:13.134Z,13.50
2023-05-05T08:22:40.753Z,12.65
2023-05-05T08:25:07.556Z,11.05
2023-05-05T08:27:35.372Z,12.48
2023-05-05T08:30:04.113Z,18.88
2023-05-05T08:32:31.350Z,14.97
2023-05-05T08:34:57.852Z,12.50
2023-05-05T08:37:24.385Z,14.43
2023-05-05T08:39:50.928Z,10.75
2023-05-05T08:42:25.788Z,12.50
2023-05-05T08:44:59.782Z,12.93
2023-05-05T08:47:26.525Z,11.93
2023-05-05T08:49:53.935Z,15.05
2023-05-05T08:52:22.974Z,11.13
2023-05-05T08:54:57.179Z,9.48
2023-05-05T08:57:28.426Z,16.13
2023-05-05T08:59:56.041Z,11.90
2023-05-05T09:02:24.028Z,14.18
2023-05-05T09:04:51.951Z,6.47
2023-05-05T09:07:18.722Z,9.65
2023-05-05T09:09:45.824Z,6.77
2023-05-05T09:12:12.285Z,8.13
2023-05-05T09:14:38.707Z,7.55
2023-05-05T09:17:05.240Z,6.03
2023-05-05T09:19:31.887Z,12.18
2023-05-05T09:21:58.350Z,10.27
2023-05-05T09:24:25.501Z,8.88
2023-05-05T09:26:52.045Z,9.63
2023-05-05T09:29:19.609Z,20.42
2023-05-05T09:31:59.887Z,31.52
2023-05-05T09:34:26.985Z,28.03
2023-05-05T09:36:53.463Z,21.08
2023-05-05T09:39:21.052Z,16.02
2023-05-05T09:41:47.581Z,15.82
2023-05-05T09:44:17.082Z,13.40
2023-05-05T09:46:51.262Z,13.90
2023-05-05T09:49:26.674Z,15.60
2023-05-05T09:51:53.790Z,11.65
2023-05-05T09:54:27.736Z,10.55
2023-05-05T09:56:54.710Z,10.55
2023-05-05T09:59:21.426Z,15.43
2023-05-05T10:01:49.125Z,10.18
2023-05-05T10:04:25.645Z,9.20
2023-05-05T10:06:52.163Z,13.35
2023-05-05T10:09:18.784Z,11.32
2023-05-05T10:11:46.458Z,13.83
2023-05-05T10:14:16.093Z,13.57
2023-05-05T10:16:47.906Z,10.30
2023-05-05T10:19:15.196Z,14.85
2023-05-05T10:21:43.776Z,12.38
2023-05-05T10:24:11.882Z,10.10
2023-05-05T10:26:39.549Z,10.10
2023-05-05T10:29:10.219Z,5.93
2023-05-05T10:31:47.765Z,6.80
2023-05-05T10:34:21.030Z,9.50
2023-05-05T10:36:48.054Z,6.57
2023-05-05T10:39:15.286Z,6.63
2023-05-05T10:41:42.105Z,7.60
2023-05-05T10:44:10.744Z,8.05
2023-05-05T10:46:37.580Z,10.07
2023-05-05T10:49:07.159Z,8.27
2023-05-05T10:51:40.932Z,10.77
2023-05-05T10:54:16.590Z,16.35
2023-05-05T10:56:43.465Z,11.25
2023-05-05T10:59:28.632Z,9.93
2023-05-05T11:01:55.179Z,10.20
2023-05-05T11:04:22.746Z,8.60
2023-05-05T11:07:21.277Z,13.43
2023-05-05T11:10:03.441Z,8.13
2023-05-05T11:12:30.899Z,15.95
2023-05-05T11:15:16.442Z,10.10
2023-05-05T11:17:49.430Z,12.25
2023-05-05T11:20:16.214Z,12.23
2023-05-05T11:23:01.571Z,9.23
2023-05-05T11:25:37.836Z,12.40
2023-05-05T11:28:05.619Z,13.30
2023-05-05T11:30:32.111Z,9.73
2023-05-05T11:33:17.622Z,8.75
2023-05-05T11:35:56.455Z,11.95
2023-05-05T11:38:41.410Z,11.57
2023-05-05T11:41:24.823Z,11.23
2023-05-05T11:44:07.894Z,7.97
2023-05-05T11:46:34.520Z,12.25
2023-05-05T11:49:00.979Z,12.45
2023-05-05T11:51:28.362Z,13.20
2023-05-05T11:53:54.732Z,11.77
2023-05-05T11:56:22.387Z,12.50
2023-05-05T11:58:49.730Z,14.15
2023-05-05T12:01:16.672Z,16.30
2023-05-05T12:03:45.424Z,13.70
2023-05-05T12:06:13.028Z,11.50
2023-05-05T12:08:39.721Z,14.13
2023-05-05T12:11:10.205Z,33.45
2023-05-05T12:13:36.969Z,56.33
2023-05-05T12:16:13.418Z,16.38
2023-05-05T12:18:40.333Z,5.60
2023-05-05T12:21:19.841Z,7.20
2023-05-05T12:23:46.641Z,6.05
2023-05-05T12:26:29.026Z,7.05
2023-05-05T12:28:56.058Z,4.93
2023-05-05T12:31:22.676Z,4.97
2023-05-05T12:33:50.136Z,7.63
2023-05-05T12:36:16.688Z,5.95
2023-05-05T12:38:43.216Z,9.20
2023-05-05T12:41:09.764Z,6.28
2023-05-05T12:43:36.378Z,8.03
2023-05-05T12:46:10.226Z,6.80
2023-05-05T12:48:38.484Z,4.60
2023-05-05T12:51:16.334Z,6.47
2023-05-05T12:53:43.403Z,6.13
2023-05-05T12:56:29.246Z,7.83
2023-05-05T12:58:55.792Z,4.60
2023-05-05T13:01:22.359Z,5.45
2023-05-05T13:04:03.820Z,4.95
2023-05-05T13:06:30.353Z,11.50
2023-05-05T13:08:57.095Z,6.70
2023-05-05T13:11:23.579Z,4.93
2023-05-05T13:13:50.232Z,6.32
2023-05-05T13:16:16.854Z,6.43
2023-05-05T13:18:46.565Z,4.90
2023-05-05T13:21:13.268Z,7.37
2023-05-05T13:23:43.024Z,6.88
2023-05-05T13:26:09.748Z,4.50
2023-05-05T13:28:36.246Z,4.35
2023-05-05T13:31:02.748Z,5.10
2023-05-05T13:33:29.200Z,5.57
2023-05-05T13:35:55.929Z,5.88
2023-05-05T13:38:22.291Z,6.03
2023-05-05T13:40:48.751Z,5.85
2023-05-05T13:43:15.193Z,5.60
2023-05-05T13:45:42.068Z,5.83
2023-05-05T13:48:08.682Z,4.28
2023-05-05T13:50:35.240Z,6.38
2023-05-05T13:53:01.625Z,8.23
2023-05-05T13:55:28.387Z,4.78
2023-05-05T13:57:54.769Z,4.53
2023-05-05T14:00:21.196Z,4.47
2023-05-05T14:02:48.226Z,7.55
2023-05-05T14:05:14.827Z,7.50
2023-05-05T14:07:41.457Z,5.78
2023-05-05T14:10:08.244Z,5.63
2023-05-05T14:12:34.725Z,5.03
2023-05-05T14:15:01.116Z,5.10
2023-05-05T14:17:27.562Z,5.32
2023-05-05T14:19:53.991Z,5.38
2023-05-05T14:22:20.548Z,5.07
2023-05-05T14:24:47.056Z,5.55
2023-05-05T14:27:13.613Z,13.30
2023-05-05T14:29:40.030Z,6.90
2023-05-05T14:32:06.554Z,6.45
2023-05-05T14:34:33.097Z,4.93
2023-05-05T14:36:59.613Z,5.97
2023-05-05T14:39:26.288Z,4.05
2023-05-05T14:41:52.768Z,4.43
2023-05-05T14:44:19.203Z,6.55
2023-05-05T14:46:46.219Z,9.50
2023-05-05T14:49:13.274Z,7.57
2023-05-05T14:51:39.862Z,5.15
2023-05-05T14:54:14.277Z,8.52
2023-05-05T14:56:43.915Z,6.22
2023-05-05T14:59:10.340Z,8.80
2023-05-05T15:01:37.380Z,6.35
2023-05-05T15:04:04.106Z,6.40
2023-05-05T15:06:31.303Z,8.40
2023-05-05T15:08:58.006Z,6.05
2023-05-05T15:11:24.495Z,6.93
2023-05-05T15:13:51.007Z,6.93
2023-05-05T15:16:17.478Z,7.38
2023-05-05T15:18:43.922Z,6.10
2023-05-05T15:21:10.448Z,6.53
2023-05-05T15:23:37.167Z,8.70
2023-05-05T15:26:04.390Z,8.77
2023-05-05T15:28:30.996Z,10.07
2023-05-05T15:30:58.476Z,6.80
2023-05-05T15:33:25.049Z,11.15
2023-05-05T15:35:51.616Z,11.63
2023-05-05T15:38:18.065Z,10.15
2023-05-05T15:40:44.769Z,10.00
2023-05-05T15:43:11.292Z,11.70
2023-05-05T15:45:38.631Z,13.30
2023-05-05T15:48:05.297Z,10.07
2023-05-05T15:50:31.849Z,12.77
2023-05-05T15:52:59.108Z,10.40
2023-05-05T15:55:25.749Z,10.65
2023-05-05T15:57:52.581Z,12.52
2023-05-05T16:00:19.154Z,11.43
2023-05-05T16:02:45.777Z,10.77
2023-05-05T16:05:12.418Z,14.45
2023-05-05T16:07:38.936Z,12.82
2023-05-05T16:10:05.645Z,12.35
2023-05-05T16:12:32.204Z,10.07
2023-05-05T16:14:58.818Z,11.30
2023-05-05T16:17:25.269Z,12.57
2023-05-05T16:19:51.831Z,12.27
2023-05-05T16:22:18.433Z,14.30
2023-05-05T16:24:44.920Z,17.37
2023-05-05T16:27:11.523Z,13.77
2023-05-05T16:29:38.125Z,11.75
2023-05-05T16:32:05.431Z,10.85
2023-05-05T16:34:32.009Z,14.63
2023-05-05T16:36:58.502Z,12.00
2023-05-05T16:39:25.354Z,15.73
2023-05-05T16:41:51.845Z,15.10
2023-05-05T16:44:18.274Z,10.35
2023-05-05T16:46:44.815Z,14.65
2023-05-05T16:49:11.294Z,12.10
2023-05-05T16:51:37.732Z,12.23
2023-05-05T16:54:04.378Z,11.75
2023-05-05T16:56:30.893Z,15.50
2023-05-05T16:58:57.333Z,13.85
2023-05-05T17:01:24.052Z,16.13
2023-05-05T17:03:50.599Z,13.23
2023-05-05T17:06:17.217Z,11.32
2023-05-05T17:08:43.682Z,15.20
2023-05-05T17:11:11.852Z,16.23
2023-05-05T17:13:38.492Z,13.53
2023-05-05T17:16:05.066Z,13.00
2023-05-05T17:18:31.486Z,11.82
2023-05-05T17:20:57.885Z,12.20
2023-05-05T17:23:24.291Z,13.05
2023-05-05T17:25:50.733Z,13.10
2023-05-05T17:28:17.608Z,10.43
2023-05-05T17:30:44.120Z,13.25
2023-05-05T17:33:10.841Z,19.10
2023-05-05T17:35:37.748Z,12.63
2023-05-05T17:38:04.440Z,12.10
2023-05-05T17:40:30.832Z,14.55
2023-05-05T17:42:57.282Z,17.15
2023-05-05T17:45:27.029Z,13.10
2023-05-05T17:47:53.519Z,13.98
2023-05-05T17:50:20.054Z,11.70
2023-05-05T17:52:46.680Z,13.75
2023-05-05T17:55:13.191Z,14.18
2023-05-05T17:57:39.712Z,15.10
2023-05-05T18:00:06.740Z,13.15
2023-05-05T18:02:35.050Z,12.67
2023-05-05T18:05:01.890Z,19.55
2023-05-05T18:07:28.545Z,17.25
2023-05-05T18:09:55.038Z,12.82
2023-05-05T18:12:22.723Z,15.57
2023-05-05T18:14:49.263Z,15.20
2023-05-05T18:17:15.693Z,13.40
2023-05-05T18:19:46.170Z,15.57
2023-05-05T18:22:14.271Z,13.07
2023-05-05T18:24:40.745Z,11.48
2023-05-05T18:27:10.132Z,15.57
2023-05-05T18:29:36.816Z,14.95
2023-05-05T18:32:06.081Z,15.82
2023-05-05T18:34:32.781Z,12.20
2023-05-05T18:37:00.139Z,17.80
2023-05-05T18:39:26.921Z,15.63
2023-05-05T18:41:53.324Z,14.05
2023-05-05T18:44:22.674Z,13.77
2023-05-05T18:46:49.131Z,16.42
2023-05-05T18:49:15.583Z,17.08
2023-05-05T18:51:42.156Z,16.33
2023-05-05T18:54:08.747Z,13.68
2023-05-05T18:56:35.471Z,15.57
2023-05-05T18:59:02.001Z,16.27
2023-05-05T19:01:28.409Z,21.05
2023-05-05T19:03:54.890Z,16.13
2023-05-05T19:06:21.331Z,18.05
2023-05-05T19:08:47.838Z,15.43
2023-05-05T19:11:15.218Z,19.73
2023-05-05T19:13:41.916Z,17.17
2023-05-05T19:16:08.466Z,17.10
2023-05-05T19:18:34.943Z,17.02
2023-05-05T19:21:01.518Z,17.60
2023-05-05T19:23:27.935Z,16.20
2023-05-05T19:25:54.607Z,22.20
2023-05-05T19:28:21.471Z,18.07
2023-05-05T19:30:48.736Z,23.48
2023-05-05T19:33:15.898Z,19.58
2023-05-05T19:35:42.464Z,18.17
2023-05-05T19:38:10.386Z,17.63
2023-05-05T19:40:39.874Z,19.03
2023-05-05T19:43:06.723Z,22.25
2023-05-05T19:45:36.367Z,14.65
2023-05-05T19:48:02.996Z,23.33
2023-05-05T19:50:30.628Z,19.13
2023-05-05T19:52:57.732Z,18.87
2023-05-05T19:55:24.514Z,19.67
2023-05-05T19:57:51.130Z,22.88
2023-05-05T20:00:18.284Z,19.77
2023-05-05T20:02:45.302Z,21.08
2023-05-05T20:05:14.123Z,19.53
2023-05-05T20:07:42.001Z,17.70
2023-05-05T20:10:09.468Z,15.48
2023-05-05T20:12:36.593Z,19.25
2023-05-05T20:15:03.254Z,21.48
2023-05-05T20:17:29.691Z,17.67
2023-05-05T20:19:57.736Z,21.63
2023-05-05T20:22:26.644Z,17.58
2023-05-05T20:24:53.510Z,19.20
2023-05-05T20:27:21.077Z,19.35
2023-05-05T20:29:48.210Z,19.07
2023-05-05T20:32:14.921Z,16.88
2023-05-05T20:34:41.388Z,17.60
2023-05-05T20:37:07.943Z,19.33
2023-05-05T20:39:34.464Z,19.15
2023-05-05T20:42:01.219Z,19.67
2023-05-05T20:44:27.647Z,20.17
2023-05-05T20:46:54.246Z,26.60
2023-05-05T20:49:20.777Z,23.02
2023-05-05T20:51:47.185Z,18.80
2023-05-05T20:54:13.660Z,18.67
2023-05-05T20:56:40.093Z,21.63
2023-05-05T20:59:06.515Z,19.92
2023-05-05T21:01:33.033Z,18.10
2023-05-05T21:04:00.453Z,20.30
2023-05-05T21:06:26.909Z,18.47
2023-05-05T21:08:53.398Z,21.13
2023-05-05T21:11:19.910Z,24.42
2023-05-05T21:13:46.397Z,22.52
2023-05-05T21:16:12.827Z,22.58
2023-05-05T21:18:39.324Z,23.60
2023-05-05T21:21:06.098Z,20.20
2023-05-05T21:23:32.497Z,21.98
2023-05-05T21:25:59.268Z,24.58
2023-05-05T21:28:25.787Z,26.35
2023-05-05T21:31:10.383Z,24.40
2023-05-05T21:33:38.700Z,22.80
2023-05-05T21:36:06.058Z,24.13
2023-05-05T21:38:32.605Z,22.73
2023-05-05T21:40:59.214Z,25.52
2023-05-05T21:43:25.972Z,24.90
2023-05-05T21:45:59.341Z,23.20
2023-05-05T21:48:25.711Z,26.08
2023-05-05T21:50:52.606Z,27.00
2023-05-05T21:53:19.009Z,25.75
2023-05-05T21:55:45.470Z,21.37
2023-05-05T21:58:11.931Z,26.70
2023-05-05T22:00:38.816Z,26.38
2023-05-05T22:03:05.609Z,28.98
2023-05-05T22:05:32.088Z,27.25
2023-05-05T22:07:58.510Z,28.20
2023-05-05T22:10:25.121Z,26.75
2023-05-05T22:12:52.036Z,24.85
2023-05-05T22:15:20.027Z,26.25
2023-05-05T22:17:46.540Z,27.13
2023-05-05T22:20:13.114Z,27.83
2023-05-05T22:22:39.542Z,26.15
2023-05-05T22:25:06.791Z,36.60
2023-05-05T22:27:33.257Z,28.60
2023-05-05T22:29:59.871Z,25.75
2023-05-05T22:32:26.319Z,26.50
2023-05-05T22:34:52.914Z,28.13
2023-05-05T22:37:19.369Z,30.75
2023-05-05T22:39:45.818Z,26.90
2023-05-05T22:42:12.344Z,28.65
2023-05-05T22:44:38.804Z,30.07
2023-05-05T22:47:06.147Z,29.58
2023-05-05T22:49:32.710Z,33.60
2023-05-05T22:51:59.262Z,32.85
2023-05-05T22:54:25.859Z,30.55
2023-05-05T22:56:52.375Z,28.80
2023-05-05T22:59:18.827Z,30.75
2023-05-05T23:01:45.311Z,30.95
2023-05-05T23:04:11.887Z,32.90
2023-05-05T23:06:40.248Z,29.25
2023-05-05T23:09:06.862Z,33.90
2023-05-05T23:11:33.324Z,33.63
2023-05-05T23:13:59.973Z,33.55
2023-05-05T23:16:26.550Z,30.83
2023-05-05T23:18:53.053Z,30.83
2023-05-05T23:21:19.482Z,31.33
2023-05-05T23:23:46.160Z,35.97
2023-05-05T23:26:13.289Z,31.13
2023-05-05T23:28:39.726Z,31.88
2023-05-05T23:31:06.358Z,33.25
2023-05-05T23:33:32.883Z,33.07
2023-05-05T23:35:59.419Z,34.67
2023-05-05T23:38:25.941Z,31.63
2023-05-05T23:40:52.885Z,31.98
2023-05-05T23:43:19.316Z,35.42
2023-05-05T23:45:45.872Z,35.63
2023-05-05T23:48:12.308Z,34.80
2023-05-05T23:50:38.759Z,32.72
2023-05-05T23:53:05.369Z,37.20
2023-05-05T23:55:31.845Z,33.75
2023-05-05T23:57:58.361Z,30.73
